createdAt,value
2023-01-09T00:00:11.440Z,51.96
2023-01-09T00:02:40.067Z,51.35
2023-01-09T00:05:08.147Z,50.95
2023-01-09T00:07:35.256Z,51.03
2023-01-09T00:10:02.722Z,51.08
2023-01-09T00:12:30.716Z,51.99
2023-01-09T00:15:00.954Z,52.97
2023-01-09T00:17:28.818Z,52.40
2023-01-09T00:19:57.726Z,52.23
2023-01-09T00:22:26.283Z,52.08
2023-01-09T00:24:53.626Z,52.13
2023-01-09T00:27:20.964Z,52.38
2023-01-09T00:29:48.865Z,52.00
2023-01-09T00:32:16.563Z,52.11
2023-01-09T00:34:43.764Z,52.22
2023-01-09T00:37:12.597Z,52.12
2023-01-09T00:39:40.167Z,51.98
2023-01-09T00:42:11.399Z,52.10
2023-01-09T00:44:42.406Z,52.87
2023-01-09T00:47:14.468Z,52.31
2023-01-09T00:49:44.297Z,52.03
2023-01-09T00:52:14.596Z,51.92
2023-01-09T00:54:44.383Z,51.19
2023-01-09T00:57:14.373Z,50.67
2023-01-09T00:59:43.008Z,51.10
2023-01-09T01:02:10.879Z,51.70
2023-01-09T01:04:38.219Z,52.86
2023-01-09T01:07:05.479Z,53.70
2023-01-09T01:09:34.101Z,52.59
2023-01-09T01:12:02.639Z,50.94
2023-01-09T01:14:29.901Z,50.92
2023-01-09T01:16:57.108Z,49.53
2023-01-09T01:19:24.564Z,52.11
2023-01-09T01:21:52.158Z,50.07
2023-01-09T01:24:19.378Z,48.98
2023-01-09T01:26:48.312Z,48.81
2023-01-09T01:29:15.663Z,48.74
2023-01-09T01:31:42.939Z,49.06
2023-01-09T01:34:10.120Z,49.53
2023-01-09T01:36:38.459Z,49.02
2023-01-09T01:39:05.969Z,49.75
2023-01-09T01:41:33.238Z,49.94
2023-01-09T01:44:04.077Z,51.79
2023-01-09T01:46:33.427Z,52.15
2023-01-09T01:49:07.820Z,52.49
2023-01-09T01:51:41.541Z,53.97
2023-01-09T01:54:16.499Z,52.76
2023-01-09T01:56:47.509Z,52.22
2023-01-09T01:59:22.237Z,51.35
2023-01-09T02:01:53.988Z,50.62
2023-01-09T02:04:22.030Z,51.38
2023-01-09T02:06:53.512Z,51.47
2023-01-09T02:09:22.179Z,50.17
2023-01-09T02:11:51.878Z,50.20
2023-01-09T02:14:24.590Z,50.30
2023-01-09T02:17:03.871Z,50.24
2023-01-09T02:20:06.601Z,49.64
2023-01-09T02:22:44.983Z,49.05
2023-01-09T02:25:41.502Z,49.35
2023-01-09T02:28:40.198Z,49.21
2023-01-09T02:31:15.840Z,50.01
2023-01-09T02:33:58.289Z,47.95
2023-01-09T02:36:38.791Z,47.74
2023-01-09T02:39:21.389Z,46.47
2023-01-09T02:41:57.680Z,47.08
2023-01-09T02:44:27.841Z,46.84
2023-01-09T02:47:05.902Z,45.46
2023-01-09T02:49:38.680Z,45.38
2023-01-09T02:52:24.363Z,45.10
2023-01-09T02:55:05.246Z,45.17
2023-01-09T02:57:53.210Z,44.91
2023-01-09T03:00:35.681Z,45.53
2023-01-09T03:03:13.046Z,44.59
2023-01-09T03:05:46.166Z,44.92
2023-01-09T03:08:19.371Z,43.29
2023-01-09T03:10:53.781Z,44.09
2023-01-09T03:13:25.990Z,42.82
2023-01-09T03:15:58.099Z,43.58
2023-01-09T03:18:31.794Z,43.26
2023-01-09T03:20:59.221Z,43.86
2023-01-09T03:23:26.320Z,45.50
2023-01-09T03:25:53.536Z,44.76
2023-01-09T03:28:27.964Z,44.31
2023-01-09T03:30:55.446Z,43.66
2023-01-09T03:33:22.741Z,43.42
2023-01-09T03:35:51.281Z,44.24
2023-01-09T03:38:18.483Z,43.80
2023-01-09T03:40:45.686Z,56.72
2023-01-09T03:43:12.849Z,53.95
2023-01-09T03:45:39.980Z,48.13
2023-01-09T03:48:07.322Z,48.48
2023-01-09T03:50:35.043Z,47.48
2023-01-09T03:53:04.965Z,45.92
2023-01-09T03:55:32.227Z,44.86
2023-01-09T03:57:59.424Z,44.30
2023-01-09T04:00:26.566Z,42.78
2023-01-09T04:02:53.684Z,44.76
2023-01-09T04:05:20.944Z,44.64
2023-01-09T04:07:48.143Z,43.22
2023-01-09T04:10:17.369Z,42.21
2023-01-09T04:12:44.444Z,41.86
2023-01-09T04:15:12.064Z,41.88
2023-01-09T04:17:39.222Z,42.10
2023-01-09T04:20:08.145Z,41.42
2023-01-09T04:22:35.291Z,39.84
2023-01-09T04:25:02.366Z,42.33
2023-01-09T04:27:31.045Z,42.53
2023-01-09T04:29:58.261Z,41.31
2023-01-09T04:32:25.393Z,41.11
2023-01-09T04:34:52.453Z,40.29
2023-01-09T04:37:19.643Z,39.40
2023-01-09T04:39:46.815Z,39.64
2023-01-09T04:42:14.172Z,40.43
2023-01-09T04:44:42.807Z,39.25
2023-01-09T04:47:09.988Z,39.79
2023-01-09T04:49:37.146Z,38.95
2023-01-09T04:52:04.813Z,39.30
2023-01-09T04:54:33.200Z,39.12
2023-01-09T04:57:00.364Z,38.11
2023-01-09T04:59:27.523Z,38.77
2023-01-09T05:01:56.336Z,37.90
2023-01-09T05:04:23.586Z,39.61
2023-01-09T05:06:51.274Z,37.44
2023-01-09T05:09:18.474Z,38.53
2023-01-09T05:11:45.572Z,38.39
2023-01-09T05:14:12.657Z,38.93
2023-01-09T05:16:39.784Z,38.28
2023-01-09T05:19:08.642Z,38.71
2023-01-09T05:21:36.002Z,38.30
2023-01-09T05:24:03.217Z,37.26
2023-01-09T05:26:30.474Z,37.60
2023-01-09T05:28:57.711Z,38.31
2023-01-09T05:31:27.413Z,38.23
2023-01-09T05:33:54.741Z,37.86
2023-01-09T05:36:23.297Z,37.48
2023-01-09T05:38:50.412Z,36.95
2023-01-09T05:41:17.761Z,36.67
2023-01-09T05:43:45.044Z,36.97
2023-01-09T05:46:12.241Z,37.35
2023-01-09T05:48:39.425Z,35.29
2023-01-09T05:51:06.565Z,36.61
2023-01-09T05:53:35.182Z,36.84
2023-01-09T05:56:02.343Z,37.06
2023-01-09T05:58:29.584Z,37.43
2023-01-09T06:00:58.356Z,36.62
2023-01-09T06:03:25.545Z,37.06
2023-01-09T06:05:52.982Z,37.56
2023-01-09T06:08:20.130Z,37.11
2023-01-09T06:10:48.735Z,36.63
2023-01-09T06:13:15.912Z,36.73
2023-01-09T06:15:43.159Z,37.53
2023-01-09T06:18:10.263Z,37.40
2023-01-09T06:20:37.461Z,35.50
2023-01-09T06:23:04.607Z,37.04
2023-01-09T06:25:31.755Z,35.02
2023-01-09T06:28:00.329Z,36.37
2023-01-09T06:30:27.550Z,37.02
2023-01-09T06:32:54.748Z,38.79
2023-01-09T06:35:21.970Z,39.63
2023-01-09T06:37:50.091Z,40.29
2023-01-09T06:40:18.212Z,40.27
2023-01-09T06:42:46.022Z,40.22
2023-01-09T06:45:15.948Z,40.96
2023-01-09T06:47:43.186Z,40.92
2023-01-09T06:50:12.166Z,40.29
2023-01-09T06:52:40.165Z,41.68
2023-01-09T06:55:09.244Z,41.60
2023-01-09T06:57:36.483Z,42.10
2023-01-09T07:00:04.787Z,42.86
2023-01-09T07:02:33.365Z,39.81
2023-01-09T07:05:00.572Z,40.61
2023-01-09T07:07:27.730Z,40.95
2023-01-09T07:09:54.939Z,40.12
2023-01-09T07:12:22.164Z,40.31
2023-01-09T07:14:49.543Z,39.49
2023-01-09T07:17:16.886Z,40.43
2023-01-09T07:19:45.603Z,40.36
2023-01-09T07:22:12.887Z,40.71
2023-01-09T07:24:40.051Z,41.30
2023-01-09T07:27:07.465Z,39.61
2023-01-09T07:29:34.746Z,38.56
2023-01-09T07:32:01.989Z,39.21
2023-01-09T07:34:29.368Z,40.12
2023-01-09T07:36:58.164Z,39.10
2023-01-09T07:39:25.438Z,40.67
2023-01-09T07:41:52.784Z,41.43
2023-01-09T07:44:20.152Z,42.56
2023-01-09T07:46:47.447Z,40.76
2023-01-09T07:49:14.646Z,39.87
2023-01-09T07:51:41.945Z,41.18
2023-01-09T07:54:10.688Z,42.27
2023-01-09T07:56:37.951Z,39.93
2023-01-09T07:59:05.214Z,38.53
2023-01-09T08:01:33.253Z,37.50
2023-01-09T08:04:00.809Z,37.24
2023-01-09T08:06:27.996Z,37.51
2023-01-09T08:08:55.904Z,39.37
2023-01-09T08:11:25.148Z,38.89
2023-01-09T08:13:52.816Z,38.84
2023-01-09T08:16:20.306Z,40.11
2023-01-09T08:18:47.842Z,39.64
2023-01-09T08:21:15.224Z,38.71
2023-01-09T08:23:42.605Z,39.49
2023-01-09T08:26:09.905Z,38.96
2023-01-09T08:28:38.587Z,40.23
2023-01-09T08:31:06.640Z,39.64
2023-01-09T08:33:34.185Z,39.16
2023-01-09T08:36:01.560Z,38.57
2023-01-09T08:38:28.886Z,38.61
2023-01-09T08:40:56.252Z,39.75
2023-01-09T08:43:23.826Z,39.83
2023-01-09T08:45:52.824Z,39.88
2023-01-09T08:48:20.131Z,42.19
2023-01-09T08:50:47.285Z,41.24
2023-01-09T08:53:14.593Z,40.60
2023-01-09T08:55:42.247Z,38.32
2023-01-09T08:58:09.544Z,40.47
2023-01-09T09:00:36.933Z,39.24
2023-01-09T09:03:05.947Z,38.01
2023-01-09T09:05:33.424Z,39.69
2023-01-09T09:08:00.605Z,39.29
2023-01-09T09:10:29.999Z,39.71
2023-01-09T09:12:58.758Z,39.80
2023-01-09T09:15:28.295Z,38.62
2023-01-09T09:17:58.184Z,38.19
2023-01-09T09:20:29.453Z,38.46
2023-01-09T09:22:56.648Z,38.90
2023-01-09T09:25:24.248Z,37.74
2023-01-09T09:27:51.483Z,38.65
2023-01-09T09:30:20.535Z,40.60
2023-01-09T09:32:48.468Z,41.16
2023-01-09T09:35:16.643Z,38.29
2023-01-09T09:37:53.891Z,37.74
2023-01-09T09:40:34.681Z,39.51
2023-01-09T09:43:29.070Z,40.83
2023-01-09T09:46:07.167Z,41.77
2023-01-09T09:48:37.466Z,41.58
2023-01-09T09:51:35.964Z,43.39
2023-01-09T09:54:13.613Z,42.68
2023-01-09T09:56:50.457Z,42.95
2023-01-09T09:59:21.188Z,42.88
2023-01-09T10:01:55.845Z,44.35
2023-01-09T10:04:26.326Z,44.47
2023-01-09T10:06:58.846Z,44.70
2023-01-09T10:09:42.646Z,44.91
2023-01-09T10:12:26.145Z,44.99
2023-01-09T10:14:54.147Z,46.05
2023-01-09T10:17:51.803Z,46.00
2023-01-09T10:20:48.934Z,48.44
2023-01-09T10:23:42.069Z,45.82
2023-01-09T10:26:16.973Z,45.34
2023-01-09T10:29:29.946Z,46.06
2023-01-09T10:32:17.046Z,47.10
2023-01-09T10:34:58.246Z,45.96
2023-01-09T10:37:32.105Z,45.84
2023-01-09T10:40:05.928Z,45.60
2023-01-09T10:42:42.625Z,45.85
2023-01-09T10:45:25.585Z,45.52
2023-01-09T10:48:00.651Z,45.93
2023-01-09T10:50:34.858Z,46.27
2023-01-09T10:53:15.394Z,45.08
2023-01-09T10:55:46.190Z,46.81
2023-01-09T10:58:16.928Z,45.35
2023-01-09T11:00:46.453Z,46.01
2023-01-09T11:03:15.287Z,45.14
2023-01-09T11:05:43.370Z,46.24
2023-01-09T11:08:24.854Z,46.19
2023-01-09T11:10:54.890Z,45.43
2023-01-09T11:13:26.188Z,46.39
2023-01-09T11:16:02.247Z,46.71
2023-01-09T11:18:30.014Z,46.43
2023-01-09T11:21:12.343Z,45.20
2023-01-09T11:23:39.670Z,45.26
2023-01-09T11:26:23.466Z,43.30
2023-01-09T11:29:08.271Z,44.22
2023-01-09T11:31:36.159Z,44.85
2023-01-09T11:34:03.933Z,44.48
2023-01-09T11:36:32.417Z,45.37
2023-01-09T11:39:01.708Z,44.76
2023-01-09T11:41:34.127Z,45.04
2023-01-09T11:44:05.028Z,44.54
2023-01-09T11:46:37.515Z,43.86
2023-01-09T11:49:20.102Z,45.02
2023-01-09T11:52:04.130Z,44.91
2023-01-09T11:54:35.945Z,45.38
2023-01-09T11:57:03.569Z,44.92
2023-01-09T11:59:32.250Z,44.87
2023-01-09T12:02:47.543Z,44.77
2023-01-09T12:05:28.219Z,43.35
2023-01-09T12:08:12.133Z,44.30
2023-01-09T12:11:08.509Z,44.57
2023-01-09T12:13:50.079Z,43.75
2023-01-09T12:16:31.679Z,42.71
2023-01-09T12:19:27.272Z,42.93
2023-01-09T12:22:08.335Z,43.75
2023-01-09T12:25:02.009Z,43.93
2023-01-09T12:27:52.388Z,44.05
2023-01-09T12:30:33.456Z,45.32
2023-01-09T12:33:22.028Z,44.64
2023-01-09T12:36:01.271Z,45.24
2023-01-09T12:38:47.772Z,43.47
2023-01-09T12:41:46.952Z,44.21
2023-01-09T12:44:35.953Z,44.83
2023-01-09T12:47:26.658Z,45.57
2023-01-09T12:50:09.912Z,44.50
2023-01-09T12:52:44.512Z,44.93
2023-01-09T12:55:18.441Z,45.08
2023-01-09T12:57:50.925Z,45.62
2023-01-09T13:00:26.962Z,45.21
2023-01-09T13:03:11.730Z,44.90
2023-01-09T13:05:45.721Z,44.92
2023-01-09T13:08:24.766Z,45.00
2023-01-09T13:10:56.486Z,44.37
2023-01-09T13:13:34.708Z,43.96
2023-01-09T13:16:10.789Z,44.09
2023-01-09T13:18:45.917Z,43.96
2023-01-09T13:21:14.756Z,43.58
2023-01-09T13:23:52.567Z,44.77
2023-01-09T13:26:25.543Z,44.59
2023-01-09T13:28:58.329Z,46.10
2023-01-09T13:31:52.268Z,45.61
2023-01-09T13:34:24.051Z,45.62
2023-01-09T13:36:54.951Z,46.33
2023-01-09T13:39:27.628Z,47.13
2023-01-09T13:41:59.307Z,47.70
2023-01-09T13:44:28.897Z,46.61
2023-01-09T13:46:59.747Z,47.28
2023-01-09T13:50:20.793Z,47.33
2023-01-09T13:52:49.254Z,46.74
2023-01-09T13:55:30.288Z,47.35
2023-01-09T13:58:20.246Z,48.27
2023-01-09T14:00:50.137Z,48.48
2023-01-09T14:03:21.319Z,48.05
2023-01-09T14:06:17.276Z,48.42
2023-01-09T14:08:47.912Z,48.47
2023-01-09T14:11:23.194Z,48.92
2023-01-09T14:14:21.626Z,48.81
2023-01-09T14:16:49.167Z,47.98
2023-01-09T14:19:36.045Z,47.43
2023-01-09T14:22:05.963Z,47.41
2023-01-09T14:24:42.553Z,46.58
2023-01-09T14:27:43.262Z,47.86
2023-01-09T14:30:36.689Z,48.82
2023-01-09T14:33:24.451Z,48.73
2023-01-09T14:36:00.546Z,48.63
2023-01-09T14:38:32.424Z,48.08
2023-01-09T14:41:06.142Z,47.65
2023-01-09T14:43:51.023Z,48.89
2023-01-09T14:46:21.186Z,48.34
2023-01-09T14:49:06.241Z,47.98
2023-01-09T14:51:42.842Z,47.11
2023-01-09T14:54:27.924Z,46.85
2023-01-09T14:56:55.343Z,47.14
2023-01-09T14:59:22.766Z,47.61
2023-01-09T15:01:54.371Z,47.43
2023-01-09T15:04:29.801Z,46.08
2023-01-09T15:06:57.682Z,46.44
2023-01-09T15:09:29.110Z,46.32
2023-01-09T15:12:04.327Z,46.83
2023-01-09T15:14:36.094Z,46.78
2023-01-09T15:17:05.442Z,47.36
2023-01-09T15:19:33.805Z,47.27
2023-01-09T15:22:04.447Z,48.17
2023-01-09T15:24:33.803Z,47.43
2023-01-09T15:27:03.678Z,47.35
2023-01-09T15:29:30.902Z,46.33
2023-01-09T15:32:03.895Z,46.09
2023-01-09T15:34:33.922Z,47.21
2023-01-09T15:37:02.202Z,47.39
2023-01-09T15:39:35.122Z,47.12
2023-01-09T15:42:04.040Z,47.50
2023-01-09T15:44:34.001Z,46.76
2023-01-09T15:47:04.739Z,49.64
2023-01-09T15:49:35.042Z,46.80
2023-01-09T15:52:04.199Z,46.73
2023-01-09T15:54:33.805Z,46.66
2023-01-09T15:57:32.660Z,45.98
2023-01-09T16:00:38.182Z,46.71
2023-01-09T16:03:20.601Z,47.47
2023-01-09T16:05:53.147Z,48.04
2023-01-09T16:08:27.641Z,47.27
2023-01-09T16:10:58.807Z,47.68
2023-01-09T16:13:29.998Z,48.14
2023-01-09T16:16:01.478Z,47.84
2023-01-09T16:18:35.041Z,47.65
2023-01-09T16:21:38.437Z,47.18
2023-01-09T16:24:25.821Z,47.46
2023-01-09T16:27:10.610Z,46.57
2023-01-09T16:29:44.919Z,47.30
2023-01-09T16:32:19.548Z,46.30
2023-01-09T16:34:52.579Z,46.51
2023-01-09T16:37:22.342Z,46.13
2023-01-09T16:40:18.977Z,46.48
2023-01-09T16:42:46.565Z,47.07
2023-01-09T16:45:23.742Z,46.37
2023-01-09T16:47:52.119Z,45.56
2023-01-09T16:50:19.360Z,44.48
2023-01-09T16:52:49.183Z,44.52
2023-01-09T16:55:17.105Z,45.03
2023-01-09T16:57:44.679Z,45.45
2023-01-09T17:00:16.299Z,45.44
2023-01-09T17:02:43.628Z,45.92
2023-01-09T17:05:11.060Z,45.59
2023-01-09T17:07:38.921Z,45.76
2023-01-09T17:10:21.295Z,46.20
2023-01-09T17:12:52.389Z,44.31
2023-01-09T17:15:19.918Z,45.24
2023-01-09T17:17:47.259Z,45.37
2023-01-09T17:20:17.060Z,43.18
2023-01-09T17:22:48.035Z,44.42
2023-01-09T17:25:17.428Z,45.34
2023-01-09T17:27:44.993Z,45.26
2023-01-09T17:30:18.809Z,45.31
2023-01-09T17:32:47.402Z,45.13
2023-01-09T17:35:15.910Z,44.99
2023-01-09T17:37:44.986Z,45.74
2023-01-09T17:40:20.005Z,45.73
2023-01-09T17:42:47.993Z,46.16
2023-01-09T17:45:15.774Z,45.98
2023-01-09T17:47:43.198Z,46.01
2023-01-09T17:50:19.261Z,46.17
2023-01-09T17:52:46.654Z,46.02
2023-01-09T17:55:13.991Z,45.37
2023-01-09T17:57:44.857Z,45.45
2023-01-09T18:00:25.157Z,45.47
2023-01-09T18:02:52.591Z,45.89
2023-01-09T18:05:19.859Z,46.18
2023-01-09T18:07:47.022Z,45.79
2023-01-09T18:10:15.520Z,46.19
2023-01-09T18:12:47.258Z,45.72
2023-01-09T18:15:17.184Z,57.22
2023-01-09T18:17:45.108Z,53.89
2023-01-09T18:20:13.619Z,51.37
2023-01-09T18:22:40.849Z,44.34
2023-01-09T18:25:09.008Z,39.29
2023-01-09T18:27:37.776Z,37.20
2023-01-09T18:30:08.331Z,37.94
2023-01-09T18:32:35.743Z,39.33
2023-01-09T18:35:03.167Z,39.76
2023-01-09T18:37:30.554Z,41.63
2023-01-09T18:39:58.970Z,42.22
2023-01-09T18:42:26.131Z,43.11
2023-01-09T18:44:53.269Z,42.92
2023-01-09T18:47:21.891Z,43.23
2023-01-09T18:49:49.171Z,43.31
2023-01-09T18:52:16.549Z,44.25
2023-01-09T18:54:43.992Z,44.44
2023-01-09T18:57:11.152Z,44.98
2023-01-09T18:59:38.271Z,44.34
2023-01-09T19:02:05.590Z,45.01
2023-01-09T19:04:34.410Z,44.77
2023-01-09T19:07:01.892Z,45.42
2023-01-09T19:09:29.387Z,45.41
2023-01-09T19:11:56.730Z,45.62
2023-01-09T19:14:23.971Z,45.72
2023-01-09T19:16:51.272Z,45.53
2023-01-09T19:19:18.897Z,45.40
2023-01-09T19:21:47.630Z,46.34
2023-01-09T19:24:14.851Z,47.02
2023-01-09T19:26:42.149Z,45.72
2023-01-09T19:29:10.391Z,46.93
2023-01-09T19:31:37.921Z,47.16
2023-01-09T19:34:05.052Z,46.99
2023-01-09T19:36:32.390Z,46.73
2023-01-09T19:39:03.985Z,46.52
2023-01-09T19:41:31.639Z,46.68
2023-01-09T19:44:00.372Z,46.70
2023-01-09T19:46:28.333Z,46.80
2023-01-09T19:48:55.629Z,47.46
2023-01-09T19:51:22.889Z,46.93
2023-01-09T19:53:53.365Z,47.15
2023-01-09T19:56:23.885Z,46.33
2023-01-09T19:58:53.925Z,47.50
2023-01-09T20:01:23.992Z,47.23
2023-01-09T20:03:52.824Z,47.59
2023-01-09T20:06:22.166Z,47.72
2023-01-09T20:08:53.850Z,48.01
2023-01-09T20:11:24.182Z,47.79
2023-01-09T20:13:51.864Z,47.77
2023-01-09T20:16:21.554Z,48.09
2023-01-09T20:18:49.046Z,47.97
2023-01-09T20:21:17.824Z,48.45
2023-01-09T20:23:45.443Z,48.41
2023-01-09T20:26:12.888Z,48.68
2023-01-09T20:28:41.561Z,61.76
2023-01-09T20:31:11.609Z,57.46
2023-01-09T20:33:39.523Z,44.79
2023-01-09T20:36:07.412Z,45.44
2023-01-09T20:38:34.643Z,46.29
2023-01-09T20:41:07.100Z,45.88
2023-01-09T20:43:34.351Z,46.75
2023-01-09T20:46:04.527Z,47.60
2023-01-09T20:48:32.025Z,48.01
2023-01-09T20:51:04.464Z,48.32
2023-01-09T20:53:31.661Z,47.92
2023-01-09T20:56:00.521Z,48.57
2023-01-09T20:58:28.713Z,48.31
2023-01-09T21:00:56.290Z,49.16
2023-01-09T21:03:25.342Z,49.29
2023-01-09T21:05:52.502Z,48.70
2023-01-09T21:08:19.683Z,49.38
2023-01-09T21:10:46.843Z,48.65
2023-01-09T21:13:14.021Z,49.64
2023-01-09T21:15:41.781Z,48.91
2023-01-09T21:18:09.604Z,49.33
2023-01-09T21:20:39.721Z,48.78
2023-01-09T21:23:08.642Z,49.22
2023-01-09T21:25:38.806Z,48.85
2023-01-09T21:28:06.151Z,49.02
2023-01-09T21:30:33.843Z,48.79
2023-01-09T21:33:01.038Z,49.69
2023-01-09T21:35:28.481Z,48.76
2023-01-09T21:37:58.561Z,49.04
2023-01-09T21:40:25.879Z,49.29
2023-01-09T21:42:53.239Z,48.84
2023-01-09T21:45:20.479Z,50.14
2023-01-09T21:47:47.775Z,49.11
2023-01-09T21:50:17.334Z,48.69
2023-01-09T21:52:44.793Z,49.43
2023-01-09T21:55:13.462Z,48.31
2023-01-09T21:57:40.837Z,48.17
2023-01-09T22:00:09.399Z,47.68
2023-01-09T22:02:36.809Z,48.41
2023-01-09T22:05:05.429Z,48.58
2023-01-09T22:07:32.717Z,47.13
2023-01-09T22:10:00.131Z,48.02
2023-01-09T22:12:28.993Z,47.43
2023-01-09T22:14:56.695Z,46.36
2023-01-09T22:17:24.133Z,46.85
2023-01-09T22:19:51.571Z,47.19
2023-01-09T22:22:18.734Z,45.79
2023-01-09T22:24:46.176Z,45.83
2023-01-09T22:27:13.453Z,46.39
2023-01-09T22:29:42.092Z,45.86
2023-01-09T22:32:09.291Z,45.39
2023-01-09T22:34:36.653Z,46.05
2023-01-09T22:37:03.962Z,45.04
2023-01-09T22:39:31.150Z,45.39
2023-01-09T22:41:58.532Z,45.80
2023-01-09T22:44:25.673Z,46.56
2023-01-09T22:46:54.354Z,46.17
2023-01-09T22:49:21.493Z,47.38
2023-01-09T22:51:48.735Z,46.39
2023-01-09T22:54:16.115Z,47.16
2023-01-09T22:56:43.415Z,47.75
2023-01-09T22:59:11.175Z,46.92
2023-01-09T23:01:38.396Z,47.39
2023-01-09T23:04:07.275Z,47.84
2023-01-09T23:06:34.450Z,47.17
2023-01-09T23:09:01.661Z,47.54
2023-01-09T23:11:30.705Z,46.99
2023-01-09T23:13:57.886Z,48.66
2023-01-09T23:16:25.074Z,48.13
2023-01-09T23:18:52.226Z,47.57
2023-01-09T23:21:21.272Z,47.95
2023-01-09T23:23:48.362Z,47.98
2023-01-09T23:26:15.407Z,47.54
2023-01-09T23:28:42.527Z,48.77
2023-01-09T23:31:09.586Z,48.76
2023-01-09T23:33:36.772Z,49.37
2023-01-09T23:36:05.047Z,49.10
2023-01-09T23:38:33.646Z,48.28
2023-01-09T23:41:00.806Z,48.28
2023-01-09T23:43:27.926Z,48.07
2023-01-09T23:45:54.999Z,47.69
2023-01-09T23:48:22.307Z,48.00
2023-01-09T23:50:51.663Z,48.44
2023-01-09T23:53:20.106Z,48.39
2023-01-09T23:55:49.709Z,48.51
2023-01-09T23:58:16.913Z,48.75
